Time;durP1;ratioP1;P1;durP2;ratioP2;P2;SDS_P1;SDS_P2;PMS_P1;PMS_P2;Temp;Humidity;BMP_temperature;BMP_pressure;BME280_temperature;BME280_humidity;BME280_pressure;Samples;Min_cycle;Max_cycle;Signal;HPM_P1;HPM_P2
2022/03/18 00:01:33;;;;;;;21.10;16.60;;;23.50;59.80;;;;;;7902988;28;20635;-49
2022/03/18 00:05:20;;;;;;;22.35;17.08;;;23.50;59.80;;;;;;7903026;28;20567;-48
2022/03/18 00:09:06;;;;;;;21.50;16.88;;;23.50;59.80;;;;;;7902849;28;20238;-56
2022/03/18 00:12:52;;;;;;;24.33;17.48;;;23.50;59.70;;;;;;7902758;28;20196;-48
2022/03/18 00:16:37;;;;;;;21.38;17.05;;;23.50;59.60;;;;;;7902719;28;20200;-48
2022/03/18 00:20:23;;;;;;;20.58;15.65;;;23.50;59.60;;;;;;7902450;28;20207;-51
2022/03/18 00:24:09;;;;;;;22.45;16.20;;;23.50;59.50;;;;;;7902498;28;20288;-48
2022/03/18 00:27:55;;;;;;;20.88;16.60;;;23.50;59.60;;;;;;7902630;28;20188;-50
2022/03/18 00:31:40;;;;;;;20.15;16.05;;;23.50;59.40;;;;;;7902028;28;20180;-51
2022/03/18 00:35:26;;;;;;;20.33;15.80;;;23.50;59.30;;;;;;7902203;28;20230;-48
2022/03/18 00:39:11;;;;;;;19.17;16.52;;;23.60;59.30;;;;;;7901977;28;20538;-49
2022/03/18 00:42:57;;;;;;;22.13;16.23;;;23.60;59.30;;;;;;7901951;28;20284;-53
2022/03/18 00:46:43;;;;;;;18.20;15.32;;;23.60;59.20;;;;;;7902168;28;20177;-48
2022/03/18 00:54:39;;;;;;;18.25;15.13;;;23.60;59.00;;;;;;7902054;28;20200;-48
2022/03/18 00:58:24;;;;;;;19.35;15.05;;;23.70;59.00;;;;;;7901797;28;20178;-49
2022/03/18 01:02:10;;;;;;;20.05;14.48;;;23.70;59.00;;;;;;7901198;28;20188;-53
2022/03/18 01:05:55;;;;;;;17.88;15.52;;;23.70;58.90;;;;;;7901475;28;20263;-48
2022/03/18 01:09:41;;;;;;;18.23;15.35;;;23.70;58.90;;;;;;7901419;28;20168;-48
2022/03/18 01:13:26;;;;;;;16.70;14.40;;;23.60;58.80;;;;;;7901255;28;20200;-50
2022/03/18 01:17:12;;;;;;;18.25;14.27;;;23.60;58.80;;;;;;7901496;28;20208;-53
2022/03/18 01:20:57;;;;;;;18.80;14.60;;;23.60;58.80;;;;;;7901165;28;20165;-48
2022/03/18 01:24:43;;;;;;;19.17;14.88;;;23.60;58.80;;;;;;7901000;28;20240;-51
2022/03/18 01:28:30;;;;;;;17.80;14.77;;;23.60;58.70;;;;;;7901015;28;20665;-53
2022/03/18 01:32:15;;;;;;;19.33;14.38;;;23.60;58.80;;;;;;7901093;28;20192;-48
2022/03/18 01:36:01;;;;;;;17.30;14.35;;;23.50;58.90;;;;;;7900681;28;20197;-51
2022/03/18 01:39:46;;;;;;;16.55;13.82;;;23.40;59.00;;;;;;7900461;28;20635;-49
2022/03/18 01:43:44;;;;;;;19.38;13.55;;;23.30;59.20;;;;;;7900611;28;20201;-49
2022/03/18 01:47:30;;;;;;;17.20;13.95;;;23.10;59.40;;;;;;7900626;28;20165;-48
2022/03/18 01:51:16;;;;;;;17.13;14.30;;;23.00;59.60;;;;;;7900174;28;20189;-50
2022/03/18 01:55:02;;;;;;;16.88;13.38;;;22.80;59.70;;;;;;7900297;28;20209;-49
2022/03/18 01:58:47;;;;;;;17.27;13.93;;;22.70;59.90;;;;;;7900015;28;20187;-51
2022/03/18 02:02:34;;;;;;;17.58;13.63;;;22.60;60.00;;;;;;7902304;28;20189;-48
2022/03/18 02:06:19;;;;;;;17.33;12.80;;;22.60;60.10;;;;;;7906781;28;20180;-51
2022/03/18 02:10:07;;;;;;;18.98;13.30;;;22.50;60.20;;;;;;7906353;28;20184;-48
2022/03/18 02:13:57;;;;;;;15.40;12.80;;;22.30;60.40;;;;;;7906327;28;20235;-48
2022/03/18 02:17:42;;;;;;;15.40;12.57;;;22.30;60.60;;;;;;7906363;28;20172;-48
2022/03/18 02:21:29;;;;;;;14.23;12.15;;;22.20;60.70;;;;;;7906067;28;20678;-50
2022/03/18 02:25:15;;;;;;;17.63;12.13;;;22.10;60.90;;;;;;7906098;28;20204;-51
2022/03/18 02:29:02;;;;;;;15.05;12.15;;;22.00;61.80;;;;;;7906146;28;20642;-51
2022/03/18 02:32:47;;;;;;;15.80;12.15;;;21.90;61.10;;;;;;7906172;28;20734;-50
2022/03/18 02:36:33;;;;;;;15.18;12.00;;;21.90;61.30;;;;;;7905790;28;20552;-49
2022/03/18 02:40:18;;;;;;;15.32;11.93;;;21.80;61.40;;;;;;7905460;28;20535;-52
2022/03/18 02:44:04;;;;;;;17.08;12.43;;;21.70;61.40;;;;;;7905472;28;20199;-50
2022/03/18 02:47:49;;;;;;;13.73;10.93;;;21.70;61.50;;;;;;7905495;28;20234;-51
2022/03/18 02:51:38;;;;;;;15.77;12.10;;;21.60;61.60;;;;;;7905104;28;20196;-49
2022/03/18 02:55:23;;;;;;;13.40;10.55;;;21.60;61.70;;;;;;7905390;28;20204;-48
2022/03/18 02:59:09;;;;;;;13.70;10.95;;;21.50;62.70;;;;;;7904961;28;20200;-52
2022/03/18 03:02:55;;;;;;;16.15;11.45;;;21.50;61.80;;;;;;7905043;28;20662;-51
2022/03/18 03:10:45;;;;;;;15.02;10.95;;;21.40;62.00;;;;;;7905035;28;20259;-51
2022/03/18 03:14:30;;;;;;;14.48;11.13;;;21.30;62.10;;;;;;7904076;28;20211;-49
2022/03/18 03:18:16;;;;;;;16.58;11.25;;;21.30;62.20;;;;;;7904754;28;20192;-51
2022/03/18 03:22:01;;;;;;;12.90;10.68;;;21.30;62.30;;;;;;7904237;28;20196;-52
2022/03/18 03:25:48;;;;;;;13.20;10.00;;;21.20;62.40;;;;;;7904566;28;20263;-48
2022/03/18 03:29:34;;;;;;;14.30;9.82;;;21.20;62.40;;;;;;7904047;28;20530;-49
2022/03/18 03:33:19;;;;;;;13.55;10.95;;;21.10;63.30;;;;;;7904251;28;20196;-53
2022/03/18 03:37:05;;;;;;;13.65;10.32;;;21.10;62.50;;;;;;7904413;28;20212;-48
2022/03/18 03:40:50;;;;;;;13.73;10.02;;;21.00;62.50;;;;;;7903889;28;20721;-48
2022/03/18 03:44:36;;;;;;;13.70;9.93;;;21.00;62.60;;;;;;7903895;28;20224;-51
2022/03/18 03:48:22;;;;;;;14.73;10.25;;;21.00;62.70;;;;;;7903731;28;20264;-48
2022/03/18 03:52:10;;;;;;;11.52;9.50;;;20.90;62.70;;;;;;7903327;28;20211;-48
2022/03/18 03:55:56;;;;;;;14.15;10.18;;;20.90;62.90;;;;;;7903479;28;20203;-48
2022/03/18 03:59:41;;;;;;;13.10;9.95;;;20.90;62.90;;;;;;7903166;28;20256;-51
2022/03/18 04:03:28;;;;;;;13.02;9.70;;;20.80;62.80;;;;;;7903167;28;20196;-48
2022/03/18 04:07:13;;;;;;;14.00;10.50;;;20.80;63.00;;;;;;7903677;28;20259;-51
2022/03/18 04:10:59;;;;;;;13.25;9.63;;;20.80;63.10;;;;;;7902683;28;20180;-48
2022/03/18 04:14:44;;;;;;;15.13;10.23;;;20.70;63.10;;;;;;7902763;28;20287;-51
2022/03/18 04:18:30;;;;;;;14.05;9.65;;;20.70;63.20;;;;;;7902819;28;20169;-49
2022/03/18 04:22:15;;;;;;;12.43;9.68;;;20.70;63.20;;;;;;7902382;28;20193;-49
2022/03/18 04:26:01;;;;;;;14.05;10.02;;;20.70;63.30;;;;;;7901568;28;20548;-51
2022/03/18 04:29:46;;;;;;;14.10;9.80;;;20.60;63.40;;;;;;7902177;28;20181;-52
2022/03/18 04:33:32;;;;;;;13.63;9.35;;;20.60;63.40;;;;;;7902388;28;20573;-48
2022/03/18 04:37:17;;;;;;;11.15;8.70;;;20.60;63.40;;;;;;7902144;28;20288;-52
2022/03/18 04:41:03;;;;;;;16.17;9.63;;;20.50;63.60;;;;;;7901787;28;20169;-49
2022/03/18 04:44:49;;;;;;;14.43;9.68;;;20.50;63.40;;;;;;7901957;28;20199;-49
2022/03/18 04:48:34;;;;;;;19.23;9.55;;;20.50;63.70;;;;;;7901841;28;20180;-48
2022/03/18 04:52:20;;;;;;;13.77;9.55;;;20.50;63.70;;;;;;7901721;28;20787;-48
2022/03/18 04:57:15;;;;;;;23.95;10.45;;;20.60;64.00;;;;;;7901669;28;20257;-52
2022/03/18 05:00:12;;;;;;;19.50;10.43;;;20.50;64.00;;;;;;7901258;28;20184;-48
2022/03/18 05:03:57;;;;;;;36.97;14.40;;;20.50;64.10;;;;;;7901509;28;20185;-48
2022/03/18 05:07:49;;;;;;;30.83;14.60;;;20.50;64.80;;;;;;7914429;28;20172;-48
2022/03/18 05:11:34;;;;;;;28.42;13.88;;;20.50;65.00;;;;;;7931635;28;20324;-50
2022/03/18 05:15:20;;;;;;;37.22;13.98;;;20.60;64.80;;;;;;7932554;28;20204;-47
2022/03/18 05:19:05;;;;;;;28.55;13.27;;;20.60;64.60;;;;;;7932422;28;20308;-48
2022/03/18 05:22:54;;;;;;;24.40;12.65;;;20.50;64.50;;;;;;7932491;28;20213;-52
2022/03/18 05:26:40;;;;;;;27.92;12.82;;;20.50;64.50;;;;;;7932506;28;20260;-50
2022/03/18 05:30:25;;;;;;;21.80;12.98;;;20.60;64.50;;;;;;7932172;28;20186;-51
2022/03/18 05:34:11;;;;;;;20.27;12.45;;;20.60;64.50;;;;;;7932004;28;20312;-50
2022/03/18 05:37:56;;;;;;;24.38;11.90;;;20.60;64.40;;;;;;7932084;28;20633;-51
2022/03/18 05:41:44;;;;;;;22.38;11.93;;;20.60;64.60;;;;;;7932158;28;20168;-49
2022/03/18 05:45:30;;;;;;;22.48;12.00;;;20.60;64.60;;;;;;7932134;28;20215;-48
2022/03/18 05:49:17;;;;;;;18.73;12.52;;;20.60;64.40;;;;;;7931802;28;20250;-49
2022/03/18 05:53:03;;;;;;;18.08;11.60;;;20.60;64.30;;;;;;7931892;28;20601;-46
2022/03/18 05:56:54;;;;;;;17.60;12.27;;;20.60;64.20;;;;;;7931728;28;20203;-50
2022/03/18 06:00:40;;;;;;;23.92;12.80;;;20.60;64.30;;;;;;7931619;28;20176;-48
2022/03/18 06:04:27;;;;;;;19.98;12.30;;;20.60;64.20;;;;;;7931763;28;20212;-50
2022/03/18 06:12:17;;;;;;;19.20;12.45;;;20.60;64.20;;;;;;7931194;28;20229;-50
2022/03/18 06:16:02;;;;;;;20.85;12.95;;;20.60;64.10;;;;;;7931626;28;20264;-48
2022/03/18 06:19:48;;;;;;;19.42;12.32;;;20.60;64.10;;;;;;7931604;28;20172;-49
2022/03/18 06:23:34;;;;;;;20.70;13.55;;;20.70;64.20;;;;;;7931372;28;20191;-51
2022/03/18 06:27:20;;;;;;;19.63;13.50;;;20.60;64.00;;;;;;7931623;28;20176;-50
2022/03/18 06:31:06;;;;;;;20.67;14.30;;;20.60;64.10;;;;;;7931225;28;20207;-48
2022/03/18 06:34:51;;;;;;;21.35;14.00;;;20.60;64.10;;;;;;7931382;28;20211;-47
2022/03/18 06:38:37;;;;;;;24.50;14.18;;;20.60;64.00;;;;;;7931768;28;20246;-49
2022/03/18 06:42:23;;;;;;;21.17;12.93;;;20.60;64.00;;;;;;7931219;28;20192;-50
2022/03/18 06:46:11;;;;;;;24.17;14.52;;;20.60;64.00;;;;;;7931362;28;20169;-48
2022/03/18 06:49:56;;;;;;;18.13;13.23;;;20.60;64.10;;;;;;7935165;28;20211;-48
2022/03/18 06:53:42;;;;;;;22.00;14.98;;;20.60;64.10;;;;;;7937079;28;20240;-48
2022/03/18 06:57:27;;;;;;;22.42;14.48;;;20.60;64.10;;;;;;7936892;28;20200;-49
2022/03/18 07:01:13;;;;;;;24.02;16.20;;;20.60;64.20;;;;;;7936331;28;20259;-49
2022/03/18 07:04:58;;;;;;;19.40;13.93;;;20.60;64.00;;;;;;7936675;28;20196;-48
2022/03/18 07:08:44;;;;;;;24.67;14.73;;;20.70;64.00;;;;;;7936555;28;20225;-46
2022/03/18 07:12:30;;;;;;;22.58;14.90;;;20.60;64.00;;;;;;7933692;28;20195;-48
2022/03/18 07:20:22;;;;;;;21.42;15.15;;;20.60;64.00;;;;;;7936104;28;20168;-48
2022/03/18 07:24:08;;;;;;;23.58;16.27;;;20.60;64.00;;;;;;7936016;28;20199;-48
2022/03/18 07:27:54;;;;;;;23.52;15.10;;;20.60;64.00;;;;;;7935993;28;20172;-51
2022/03/18 07:31:39;;;;;;;24.52;16.58;;;20.70;64.10;;;;;;7935601;27;20532;-48
2022/03/18 07:35:25;;;;;;;21.02;14.85;;;20.60;64.00;;;;;;7935665;28;20208;-50
2022/03/18 07:39:10;;;;;;;21.73;16.23;;;20.70;63.90;;;;;;7935129;27;20175;-49
2022/03/18 07:42:57;;;;;;;22.58;15.80;;;20.60;63.70;;;;;;7935545;28;20184;-51
2022/03/18 07:46:43;;;;;;;22.45;15.68;;;20.70;63.80;;;;;;7935658;27;20195;-51
2022/03/18 07:50:30;;;;;;;25.45;17.25;;;20.70;63.80;;;;;;7934783;28;20227;-48
2022/03/18 07:54:15;;;;;;;25.45;17.65;;;20.70;64.00;;;;;;7935076;28;20200;-50
2022/03/18 07:58:01;;;;;;;26.95;17.95;;;20.70;63.70;;;;;;7935181;28;20164;-49
2022/03/18 08:01:47;;;;;;;25.45;16.77;;;20.70;63.40;;;;;;7934361;28;20187;-53
2022/03/18 08:05:32;;;;;;;25.45;16.10;;;20.70;63.50;;;;;;7934844;28;20641;-48
2022/03/18 08:09:17;;;;;;;25.05;17.20;;;20.70;64.20;;;;;;7934498;27;20214;-51
2022/03/18 08:13:03;;;;;;;21.45;14.00;;;20.70;63.90;;;;;;7934450;27;20235;-49
2022/03/18 08:16:49;;;;;;;30.35;14.48;;;20.70;64.20;;;;;;7934245;28;20203;-49
2022/03/18 08:20:40;;;;;;;18.10;12.38;;;20.70;64.30;;;;;;7934176;28;20180;-49
2022/03/18 08:24:25;;;;;;;23.15;13.82;;;20.70;64.50;;;;;;7934082;28;20192;-46
2022/03/18 08:28:11;;;;;;;23.95;14.75;;;20.70;64.10;;;;;;7934061;28;20187;-48
2022/03/18 08:31:57;;;;;;;23.02;15.00;;;20.70;64.20;;;;;;7933866;28;20176;-45
2022/03/18 08:35:42;;;;;;;24.23;15.40;;;20.70;64.00;;;;;;7933999;28;20204;-45
2022/03/18 08:39:27;;;;;;;22.77;14.98;;;20.70;63.90;;;;;;7933654;28;20771;-46
2022/03/18 08:43:13;;;;;;;23.55;15.60;;;20.70;63.80;;;;;;7933942;28;20203;-45
2022/03/18 08:46:59;;;;;;;23.00;16.35;;;20.70;63.70;;;;;;7933876;28;20186;-45
2022/03/18 08:50:44;;;;;;;22.63;15.20;;;20.70;63.70;;;;;;7933700;28;20221;-46
2022/03/18 08:54:30;;;;;;;22.35;15.20;;;20.70;63.80;;;;;;7933444;28;20222;-50
2022/03/18 08:58:16;;;;;;;19.92;14.82;;;20.70;63.70;;;;;;7933727;28;20183;-46
2022/03/18 09:02:01;;;;;;;19.27;14.23;;;20.70;63.80;;;;;;7933204;28;20184;-46
2022/03/18 09:05:48;;;;;;;23.67;15.23;;;20.70;63.80;;;;;;7932844;28;20211;-49
2022/03/18 09:09:33;;;;;;;21.77;15.40;;;20.70;63.70;;;;;;7932786;28;20195;-45
2022/03/18 09:13:19;;;;;;;20.50;14.73;;;20.70;63.70;;;;;;7930035;28;20238;-46
2022/03/18 09:17:05;;;;;;;21.67;14.93;;;20.70;63.70;;;;;;7932499;28;20207;-47
2022/03/18 09:20:51;;;;;;;21.52;15.30;;;20.70;63.70;;;;;;7932432;28;20180;-45
2022/03/18 09:24:38;;;;;;;24.92;15.23;;;20.70;63.70;;;;;;7932481;28;20250;-49
2022/03/18 09:28:23;;;;;;;20.30;15.30;;;20.70;63.70;;;;;;7932515;28;20529;-48
2022/03/18 09:32:09;;;;;;;20.55;14.90;;;20.70;63.70;;;;;;7931921;28;20282;-46
2022/03/18 09:35:55;;;;;;;19.67;15.00;;;20.70;63.50;;;;;;7932265;28;20295;-49
2022/03/18 09:39:40;;;;;;;19.63;14.65;;;20.70;63.60;;;;;;7932069;28;20218;-46
2022/03/18 09:43:40;;;;;;;19.40;13.95;;;20.70;63.60;;;;;;7931876;28;20302;-46
2022/03/18 09:47:28;;;;;;;19.65;15.15;;;20.70;63.50;;;;;;7930214;28;20188;-50
2022/03/18 09:51:13;;;;;;;20.50;15.02;;;20.70;63.50;;;;;;7931447;28;20219;-48
2022/03/18 09:54:59;;;;;;;20.05;14.32;;;20.70;63.60;;;;;;7931876;28;20625;-45
2022/03/18 09:58:44;;;;;;;19.38;14.68;;;20.70;63.70;;;;;;7931929;28;20174;-48
2022/03/18 10:02:33;;;;;;;19.80;14.30;;;20.70;63.70;;;;;;7931618;28;20539;-46
2022/03/18 10:06:27;;;;;;;21.88;14.25;;;20.70;63.40;;;;;;7931814;28;20257;-47
2022/03/18 10:10:16;;;;;;;19.45;14.27;;;20.70;63.40;;;;;;7931473;28;20183;-49
2022/03/18 10:14:24;;;;;;;18.50;14.30;;;20.70;63.30;;;;;;7931601;28;20191;-48
2022/03/18 10:18:12;;;;;;;18.70;14.27;;;20.70;63.20;;;;;;7931684;28;20172;-49
2022/03/18 10:22:03;;;;;;;21.05;14.23;;;20.70;63.60;;;;;;7931167;28;20517;-48
2022/03/18 10:25:52;;;;;;;22.45;15.38;;;20.70;63.50;;;;;;7937455;28;20536;-46
2022/03/18 10:29:53;;;;;;;19.63;14.75;;;20.70;63.30;;;;;;7937599;27;20226;-46
2022/03/18 10:37:56;;;;;;;19.08;14.27;;;20.70;63.40;;;;;;7937657;28;20180;-49
2022/03/18 10:41:48;;;;;;;17.77;13.60;;;20.70;63.20;;;;;;7937393;28;20183;-47
2022/03/18 10:45:34;;;;;;;19.27;14.10;;;20.70;63.40;;;;;;7937593;28;20638;-47
2022/03/18 10:49:24;;;;;;;25.15;14.75;;;20.70;63.60;;;;;;7937212;28;20616;-47
2022/03/18 10:53:11;;;;;;;19.85;14.32;;;20.70;63.40;;;;;;7937442;28;20208;-49
2022/03/18 10:56:58;;;;;;;19.75;14.57;;;20.70;63.60;;;;;;7937049;28;20211;-50
2022/03/18 11:00:45;;;;;;;20.52;14.63;;;20.70;63.70;;;;;;7936735;28;20645;-47
2022/03/18 11:04:31;;;;;;;19.63;14.18;;;20.70;63.70;;;;;;7937307;27;20337;-49
2022/03/18 11:08:22;;;;;;;20.77;13.65;;;20.70;64.50;;;;;;7935476;28;20237;-50
2022/03/18 11:12:08;;;;;;;19.20;14.07;;;20.70;63.70;;;;;;7936133;28;20200;-49
2022/03/18 11:15:55;;;;;;;18.38;14.13;;;20.70;63.70;;;;;;7936331;28;20203;-48
2022/03/18 11:19:44;;;;;;;19.02;14.18;;;20.70;63.80;;;;;;7936144;28;20241;-48
2022/03/18 11:23:30;;;;;;;19.10;13.40;;;20.80;63.70;;;;;;7935950;28;20666;-48
2022/03/18 11:27:17;;;;;;;19.40;13.88;;;20.70;63.70;;;;;;7936140;28;20190;-49
2022/03/18 11:31:08;;;;;;;22.23;14.02;;;20.70;63.80;;;;;;7935741;28;20172;-48
2022/03/18 11:34:59;;;;;;;32.30;15.73;;;20.70;64.00;;;;;;7935120;28;20678;-49
2022/03/18 11:39:02;;;;;;;26.77;15.00;;;20.70;62.60;;;;;;7935775;28;20172;-49
2022/03/18 11:42:49;;;;;;;34.22;13.82;;;20.60;63.10;;;;;;7935658;28;20282;-49
2022/03/18 11:46:34;;;;;;;27.25;13.45;;;20.60;63.60;;;;;;7935684;28;20236;-48
2022/03/18 11:50:49;;;;;;;26.80;13.10;;;20.60;64.10;;;;;;7932140;28;20247;-48
2022/03/18 11:55:06;;;;;;;28.38;13.13;;;20.60;64.30;;;;;;7924985;28;20616;-48
2022/03/18 11:58:52;;;;;;;24.17;13.82;;;20.60;64.00;;;;;;7935414;28;20168;-53
2022/03/18 12:02:38;;;;;;;26.30;14.73;;;20.60;63.80;;;;;;7934574;28;20279;-48
2022/03/18 12:06:23;;;;;;;23.42;13.20;;;20.60;63.70;;;;;;7934968;28;20187;-48
2022/03/18 12:10:10;;;;;;;32.45;13.98;;;20.60;64.10;;;;;;7934541;28;20180;-48
2022/03/18 12:13:56;;;;;;;29.65;13.82;;;20.60;63.80;;;;;;7934595;28;20208;-48
2022/03/18 12:17:51;;;;;;;28.42;14.02;;;20.60;64.00;;;;;;7934559;27;20282;-54
2022/03/18 12:21:42;;;;;;;62.55;44.78;;;20.60;63.80;;;;;;7934312;28;20168;-51
2022/03/18 12:25:28;;;;;;;108.72;57.55;;;20.70;61.30;;;;;;7934236;28;20638;-48
2022/03/18 12:29:24;;;;;;;58.60;43.55;;;20.60;58.80;;;;;;7934109;28;20590;-52
2022/03/18 12:33:10;;;;;;;67.53;31.48;;;20.40;57.80;;;;;;7934232;28;20194;-48
2022/03/18 12:36:55;;;;;;;80.50;27.73;;;20.20;56.40;;;;;;7934270;28;20299;-50
2022/03/18 12:40:43;;;;;;;82.32;27.52;;;19.80;56.10;;;;;;7934086;28;20259;-47
2022/03/18 12:44:30;;;;;;;71.65;22.95;;;19.70;58.70;;;;;;7934124;28;20658;-47
2022/03/18 12:48:17;;;;;;;59.00;20.48;;;19.80;60.20;;;;;;7933444;28;20195;-52
2022/03/18 12:52:14;;;;;;;63.28;21.65;;;19.90;61.50;;;;;;7933395;28;20654;-48
2022/03/18 12:56:02;;;;;;;47.22;21.02;;;20.10;62.30;;;;;;7933911;28;20203;-48
2022/03/18 12:59:57;;;;;;;49.30;19.02;;;20.30;62.70;;;;;;7933305;28;20642;-48
2022/03/18 13:03:48;;;;;;;33.08;18.42;;;20.40;62.30;;;;;;7933126;28;20278;-48
2022/03/18 13:07:34;;;;;;;41.70;18.80;;;20.50;62.30;;;;;;7933008;28;20186;-51
2022/03/18 13:11:21;;;;;;;39.20;17.98;;;20.60;63.40;;;;;;7932499;28;20187;-48
2022/03/18 13:15:34;;;;;;;43.95;18.27;;;20.80;64.00;;;;;;7932414;28;20227;-51
2022/03/18 13:19:35;;;;;;;32.65;17.17;;;20.90;64.10;;;;;;7930766;28;20244;-48
2022/03/18 13:23:20;;;;;;;32.88;16.45;;;21.00;63.80;;;;;;7932652;28;20286;-50
2022/03/18 13:27:06;;;;;;;35.55;16.55;;;21.10;64.10;;;;;;7932524;28;20180;-48
2022/03/18 13:34:56;;;;;;;30.83;15.80;;;21.20;63.20;;;;;;7932732;28;20207;-50
2022/03/18 13:38:47;;;;;;;27.13;15.75;;;21.10;63.10;;;;;;7932418;28;20183;-49
2022/03/18 13:42:32;;;;;;;33.47;15.50;;;21.20;62.90;;;;;;7931785;28;20188;-48
2022/03/18 13:46:21;;;;;;;32.03;15.30;;;21.20;63.20;;;;;;7932275;28;20660;-52
2022/03/18 13:50:07;;;;;;;33.20;15.48;;;21.20;64.10;;;;;;7929278;28;20210;-49
2022/03/18 13:54:05;;;;;;;27.98;14.90;;;21.20;64.90;;;;;;7931582;28;20835;-52
2022/03/18 13:57:51;;;;;;;34.65;14.48;;;21.30;65.60;;;;;;7936752;28;20206;-48
2022/03/18 14:01:37;;;;;;;26.85;14.15;;;21.40;65.80;;;;;;7942923;27;20631;-48
2022/03/18 14:05:23;;;;;;;28.77;14.15;;;21.40;65.70;;;;;;7942387;27;20621;-48
2022/03/18 14:09:12;;;;;;;20.70;13.68;;;21.50;65.60;;;;;;7942324;27;20258;-48
2022/03/18 14:13:12;;;;;;;25.42;13.70;;;21.50;65.50;;;;;;7942292;27;20199;-50
2022/03/18 14:17:18;;;;;;;22.70;13.52;;;21.60;65.40;;;;;;7942109;27;20195;-50
2022/03/18 14:21:03;;;;;;;17.75;12.68;;;21.60;65.50;;;;;;7941740;27;20713;-51
2022/03/18 14:24:49;;;;;;;22.00;12.43;;;21.60;65.00;;;;;;7942029;27;20550;-48
2022/03/18 14:28:35;;;;;;;19.77;12.43;;;21.60;64.60;;;;;;7942045;27;20172;-50
2022/03/18 14:32:21;;;;;;;24.38;12.57;;;21.60;64.60;;;;;;7941635;27;20329;-48
2022/03/18 14:36:07;;;;;;;18.50;11.90;;;21.60;64.50;;;;;;7942210;27;20211;-48
2022/03/18 14:39:52;;;;;;;23.45;12.13;;;21.60;64.40;;;;;;7941975;27;20183;-53
2022/03/18 14:43:38;;;;;;;24.90;11.90;;;21.60;64.40;;;;;;7941723;27;20188;-48
2022/03/18 14:47:24;;;;;;;63.28;14.02;;;21.60;64.40;;;;;;7942518;27;20180;-50
2022/03/18 14:51:09;;;;;;;117.40;17.08;;;21.70;64.70;;;;;;7941473;27;20270;-50
2022/03/18 14:58:59;;;;;;;92.28;16.67;;;21.70;64.90;;;;;;7941816;28;20176;-48
2022/03/18 15:02:45;;;;;;;102.13;16.95;;;21.60;64.80;;;;;;7941391;27;20241;-50
2022/03/18 15:06:31;;;;;;;72.63;15.25;;;21.60;65.20;;;;;;7941717;27;20800;-49
2022/03/18 15:10:16;;;;;;;93.55;15.65;;;21.60;65.20;;;;;;7937039;27;20202;-52
2022/03/18 15:14:02;;;;;;;64.78;14.68;;;21.60;65.20;;;;;;7936419;28;20257;-49
2022/03/18 15:17:48;;;;;;;86.25;15.82;;;21.60;66.10;;;;;;7936286;28;20204;-50
2022/03/18 15:21:33;;;;;;;90.30;14.25;;;21.60;65.20;;;;;;7936138;28;20646;-55
2022/03/18 15:25:18;;;;;;;82.97;15.48;;;21.60;65.20;;;;;;7936071;27;20252;-49
2022/03/18 15:29:05;;;;;;;61.33;13.50;;;21.60;65.20;;;;;;7935904;28;20546;-52
2022/03/18 15:32:52;;;;;;;61.55;14.80;;;21.60;66.10;;;;;;7935860;28;20227;-50
2022/03/18 15:36:39;;;;;;;66.38;14.32;;;21.60;65.10;;;;;;7935836;28;20204;-52
2022/03/18 15:40:26;;;;;;;68.38;19.05;;;21.50;65.00;;;;;;7935466;28;20176;-51
2022/03/18 15:44:12;;;;;;;65.15;19.02;;;21.60;65.00;;;;;;7935731;28;20200;-50
2022/03/18 15:47:57;;;;;;;46.72;16.35;;;21.60;65.00;;;;;;7933838;28;20180;-51
2022/03/18 15:51:43;;;;;;;50.15;17.65;;;21.60;65.00;;;;;;7934998;28;20225;-51
2022/03/18 15:55:29;;;;;;;54.80;16.73;;;21.60;65.00;;;;;;7935106;28;20210;-52
2022/03/18 15:59:15;;;;;;;60.38;16.02;;;21.60;65.00;;;;;;7934892;28;20599;-51
2022/03/18 16:03:00;;;;;;;49.30;16.20;;;21.70;64.90;;;;;;7935106;28;20184;-52
2022/03/18 16:06:46;;;;;;;44.45;15.30;;;21.70;64.80;;;;;;7934918;28;20233;-55
2022/03/18 16:10:33;;;;;;;41.22;16.58;;;21.80;64.80;;;;;;7934664;28;20168;-51
2022/03/18 16:14:18;;;;;;;41.00;16.27;;;21.90;64.70;;;;;;7906946;28;20212;-49
2022/03/18 16:18:05;;;;;;;33.75;13.93;;;21.90;64.70;;;;;;7903117;28;20226;-49
2022/03/18 16:21:52;;;;;;;38.25;14.73;;;22.10;64.70;;;;;;7927847;28;20207;-50
2022/03/18 16:25:38;;;;;;;35.17;13.90;;;22.10;64.50;;;;;;7934560;28;20172;-50
2022/03/18 16:29:24;;;;;;;29.98;12.98;;;22.20;64.50;;;;;;7934046;28;20180;-50
2022/03/18 16:33:10;;;;;;;32.50;13.60;;;22.20;64.40;;;;;;7934448;28;20208;-51
2022/03/18 16:36:59;;;;;;;29.13;13.48;;;22.30;64.40;;;;;;7926064;28;20693;-51
2022/03/18 16:40:45;;;;;;;35.58;13.02;;;22.30;64.30;;;;;;7911126;28;20179;-51
2022/03/18 16:44:30;;;;;;;40.20;12.63;;;22.30;64.20;;;;;;7933232;28;20196;-52
2022/03/18 16:52:20;;;;;;;29.90;12.43;;;22.20;64.40;;;;;;7933568;28;20282;-50
2022/03/18 16:56:05;;;;;;;25.73;12.32;;;22.20;64.60;;;;;;7933462;28;20252;-52
2022/03/18 16:59:51;;;;;;;34.33;11.73;;;22.20;64.60;;;;;;7933467;28;20175;-52
2022/03/18 17:03:36;;;;;;;33.17;12.65;;;22.20;64.60;;;;;;7933476;28;20206;-51
2022/03/18 17:07:22;;;;;;;23.60;11.55;;;22.20;64.60;;;;;;7933696;28;20585;-52
2022/03/18 17:11:07;;;;;;;30.65;11.32;;;22.20;64.70;;;;;;7902620;28;20192;-52
2022/03/18 17:14:53;;;;;;;27.73;13.75;;;22.20;64.50;;;;;;7901442;28;20253;-50
2022/03/18 17:18:39;;;;;;;49.35;13.52;;;22.20;64.90;;;;;;7901328;28;20189;-53
2022/03/18 17:22:25;;;;;;;45.88;12.90;;;22.10;64.80;;;;;;7901299;28;20230;-52
2022/03/18 17:26:11;;;;;;;35.80;12.38;;;22.10;65.00;;;;;;7901575;28;20207;-52
2022/03/18 17:29:57;;;;;;;47.05;13.05;;;22.10;65.00;;;;;;7901170;28;20722;-49
2022/03/18 17:33:44;;;;;;;30.60;12.88;;;22.10;65.00;;;;;;7900693;28;20537;-53
2022/03/18 17:37:30;;;;;;;37.28;13.68;;;22.10;65.00;;;;;;7901020;28;20485;-50
2022/03/18 17:41:16;;;;;;;31.60;12.45;;;22.10;64.90;;;;;;7900749;28;20622;-52
2022/03/18 17:45:02;;;;;;;20.08;11.85;;;22.20;64.80;;;;;;7901495;28;20718;-53
2022/03/18 17:48:48;;;;;;;31.40;12.13;;;22.30;64.70;;;;;;7900904;28;20534;-52
2022/03/18 17:52:34;;;;;;;33.58;12.23;;;22.50;64.70;;;;;;7900540;28;20215;-52
2022/03/18 17:56:19;;;;;;;38.17;12.45;;;22.60;64.60;;;;;;7900609;28;20204;-50
2022/03/18 18:00:06;;;;;;;28.05;11.18;;;22.70;64.40;;;;;;7900557;28;20201;-52
2022/03/18 18:03:52;;;;;;;21.02;11.55;;;22.90;64.20;;;;;;7900755;28;20188;-50
2022/03/18 18:07:37;;;;;;;21.15;11.02;;;23.10;64.10;;;;;;7900654;28;20263;-55
2022/03/18 18:11:23;;;;;;;22.65;11.27;;;23.20;64.00;;;;;;7900288;28;20177;-54
2022/03/18 18:15:11;;;;;;;19.05;10.48;;;23.40;63.90;;;;;;7900554;28;20222;-51
2022/03/18 18:18:57;;;;;;;18.27;10.52;;;23.50;63.90;;;;;;7900586;28;20237;-50
2022/03/18 18:22:43;;;;;;;23.38;10.93;;;23.60;63.70;;;;;;7900102;28;20650;-49
2022/03/18 18:26:28;;;;;;;18.23;10.63;;;23.70;63.60;;;;;;7900575;28;20541;-49
2022/03/18 18:30:14;;;;;;;18.33;10.65;;;23.80;63.60;;;;;;7900116;28;20542;-52
2022/03/18 18:33:59;;;;;;;22.13;10.25;;;23.80;63.60;;;;;;7900268;28;20204;-50
2022/03/18 18:37:45;;;;;;;17.42;10.63;;;23.90;63.60;;;;;;7900146;28;20197;-50
2022/03/18 18:41:31;;;;;;;22.20;10.77;;;23.90;63.60;;;;;;7899823;28;20314;-51
2022/03/18 18:45:17;;;;;;;18.95;10.35;;;23.90;63.70;;;;;;7903455;28;20205;-50
2022/03/18 18:49:02;;;;;;;16.38;10.65;;;23.90;63.60;;;;;;7905743;28;20668;-51
2022/03/18 18:52:49;;;;;;;19.33;9.90;;;23.90;63.70;;;;;;7905591;28;20714;-50
2022/03/18 18:56:35;;;;;;;16.20;10.48;;;23.90;63.70;;;;;;7905810;28;20646;-50
2022/03/18 19:00:21;;;;;;;16.38;9.18;;;23.80;63.80;;;;;;7905398;28;20172;-52
2022/03/18 19:04:10;;;;;;;17.35;9.50;;;23.70;63.80;;;;;;7905432;28;20657;-50
2022/03/18 19:07:55;;;;;;;15.65;10.65;;;23.70;63.90;;;;;;7905383;28;20635;-49
2022/03/18 19:11:41;;;;;;;17.42;10.15;;;23.70;63.90;;;;;;7905113;28;20547;-49
2022/03/18 19:15:26;;;;;;;15.18;9.85;;;23.60;63.90;;;;;;7905087;28;20204;-52
2022/03/18 19:19:12;;;;;;;14.32;9.18;;;23.60;63.90;;;;;;7905020;28;20199;-50
2022/03/18 19:23:00;;;;;;;15.32;9.85;;;23.50;64.00;;;;;;7904911;28;20192;-50
2022/03/18 19:26:46;;;;;;;16.13;10.18;;;23.50;64.10;;;;;;7905394;28;20187;-50
2022/03/18 19:30:31;;;;;;;19.23;9.73;;;23.40;64.10;;;;;;7904593;28;20185;-53
2022/03/18 19:34:17;;;;;;;17.92;9.95;;;23.40;64.20;;;;;;7904644;28;20231;-52
2022/03/18 19:38:02;;;;;;;15.95;9.60;;;23.30;64.20;;;;;;7904516;28;20291;-49
2022/03/18 19:41:48;;;;;;;13.88;9.82;;;23.30;64.40;;;;;;7904044;28;20176;-54
2022/03/18 19:45:34;;;;;;;16.02;10.32;;;23.20;64.40;;;;;;7905038;28;20212;-51